sensor_id;sensor_type;location;lat;lon;timestamp;P1;durP1;ratioP1;P2;durP2;ratioP2
76656;SDS011;65576;47.714;9.414;2023-02-28T00:00:03;1.95;;;1.85;;
76656;SDS011;65576;47.714;9.414;2023-02-28T00:02:35;1.20;;;1.13;;
76656;SDS011;65576;47.714;9.414;2023-02-28T00:05:01;3.17;;;1.13;;
76656;SDS011;65576;47.714;9.414;2023-02-28T00:07:28;1.27;;;1.17;;
76656;SDS011;65576;47.714;9.414;2023-02-28T00:09:55;0.85;;;0.85;;
76656;SDS011;65576;47.714;9.414;2023-02-28T00:12:20;1.45;;;0.98;;
76656;SDS011;65576;47.714;9.414;2023-02-28T00:14:45;2.10;;;1.98;;
76656;SDS011;65576;47.714;9.414;2023-02-28T00:17:10;1.77;;;0.98;;
76656;SDS011;65576;47.714;9.414;2023-02-28T00:19:36;0.65;;;0.65;;
76656;SDS011;65576;47.714;9.414;2023-02-28T00:22:01;1.65;;;1.20;;
76656;SDS011;65576;47.714;9.414;2023-02-28T00:24:26;1.15;;;1.13;;
76656;SDS011;65576;47.714;9.414;2023-02-28T00:26:52;1.27;;;1.17;;
76656;SDS011;65576;47.714;9.414;2023-02-28T00:29:17;0.60;;;0.60;;
76656;SDS011;65576;47.714;9.414;2023-02-28T00:31:42;2.58;;;1.77;;
76656;SDS011;65576;47.714;9.414;2023-02-28T00:34:08;2.10;;;0.75;;
76656;SDS011;65576;47.714;9.414;2023-02-28T00:36:33;0.80;;;0.80;;
76656;SDS011;65576;47.714;9.414;2023-02-28T00:38:58;1.17;;;1.10;;
76656;SDS011;65576;47.714;9.414;2023-02-28T00:41:23;1.00;;;0.88;;
76656;SDS011;65576;47.714;9.414;2023-02-28T00:43:49;1.00;;;1.00;;
76656;SDS011;65576;47.714;9.414;2023-02-28T00:46:14;1.70;;;1.50;;
76656;SDS011;65576;47.714;9.414;2023-02-28T00:48:39;0.40;;;0.40;;
76656;SDS011;65576;47.714;9.414;2023-02-28T00:51:05;2.42;;;2.22;;
76656;SDS011;65576;47.714;9.414;2023-02-28T00:53:30;0.90;;;0.90;;
76656;SDS011;65576;47.714;9.414;2023-02-28T00:55:57;1.88;;;1.33;;
76656;SDS011;65576;47.714;9.414;2023-02-28T00:58:23;1.20;;;1.20;;
76656;SDS011;65576;47.714;9.414;2023-02-28T01:00:48;1.33;;;1.23;;
76656;SDS011;65576;47.714;9.414;2023-02-28T01:03:14;0.70;;;0.60;;
76656;SDS011;65576;47.714;9.414;2023-02-28T01:05:41;1.58;;;1.48;;
76656;SDS011;65576;47.714;9.414;2023-02-28T01:08:06;1.73;;;1.63;;
76656;SDS011;65576;47.714;9.414;2023-02-28T01:10:32;5.18;;;2.10;;
76656;SDS011;65576;47.714;9.414;2023-02-28T01:12:57;0.70;;;0.70;;
76656;SDS011;65576;47.714;9.414;2023-02-28T01:15:23;1.80;;;1.70;;
76656;SDS011;65576;47.714;9.414;2023-02-28T01:17:48;2.65;;;2.10;;
76656;SDS011;65576;47.714;9.414;2023-02-28T01:20:13;0.88;;;0.85;;
76656;SDS011;65576;47.714;9.414;2023-02-28T01:22:39;3.63;;;1.20;;
76656;SDS011;65576;47.714;9.414;2023-02-28T01:25:04;0.90;;;0.60;;
76656;SDS011;65576;47.714;9.414;2023-02-28T01:27:29;1.38;;;1.27;;
76656;SDS011;65576;47.714;9.414;2023-02-28T01:29:55;0.82;;;0.82;;
76656;SDS011;65576;47.714;9.414;2023-02-28T01:32:20;1.25;;;0.80;;
76656;SDS011;65576;47.714;9.414;2023-02-28T01:34:46;1.00;;;0.98;;
76656;SDS011;65576;47.714;9.414;2023-02-28T01:37:11;0.77;;;0.77;;
76656;SDS011;65576;47.714;9.414;2023-02-28T01:39:36;0.63;;;0.63;;
76656;SDS011;65576;47.714;9.414;2023-02-28T01:42:02;0.82;;;0.82;;
76656;SDS011;65576;47.714;9.414;2023-02-28T01:47:23;0.95;;;0.95;;
76656;SDS011;65576;47.714;9.414;2023-02-28T01:49:51;1.45;;;1.13;;
76656;SDS011;65576;47.714;9.414;2023-02-28T01:52:16;2.10;;;1.48;;
76656;SDS011;65576;47.714;9.414;2023-02-28T01:54:43;1.30;;;1.20;;
76656;SDS011;65576;47.714;9.414;2023-02-28T01:57:11;0.65;;;0.63;;
76656;SDS011;65576;47.714;9.414;2023-02-28T01:59:44;1.77;;;0.85;;
76656;SDS011;65576;47.714;9.414;2023-02-28T02:02:16;0.77;;;0.77;;
76656;SDS011;65576;47.714;9.414;2023-02-28T02:04:54;0.88;;;0.85;;
76656;SDS011;65576;47.714;9.414;2023-02-28T02:07:22;1.15;;;1.05;;
76656;SDS011;65576;47.714;9.414;2023-02-28T02:09:48;3.97;;;1.33;;
76656;SDS011;65576;47.714;9.414;2023-02-28T02:12:22;3.53;;;1.80;;
76656;SDS011;65576;47.714;9.414;2023-02-28T02:15:01;1.98;;;1.65;;
76656;SDS011;65576;47.714;9.414;2023-02-28T02:17:32;2.05;;;1.05;;
76656;SDS011;65576;47.714;9.414;2023-02-28T02:22:56;1.55;;;1.20;;
76656;SDS011;65576;47.714;9.414;2023-02-28T02:25:26;1.15;;;1.13;;
76656;SDS011;65576;47.714;9.414;2023-02-28T02:27:58;0.60;;;0.60;;
76656;SDS011;65576;47.714;9.414;2023-02-28T02:36:12;1.05;;;1.00;;
76656;SDS011;65576;47.714;9.414;2023-02-28T02:41:45;1.48;;;1.38;;
76656;SDS011;65576;47.714;9.414;2023-02-28T02:44:22;0.68;;;0.68;;
76656;SDS011;65576;47.714;9.414;2023-02-28T02:46:51;1.35;;;1.08;;
76656;SDS011;65576;47.714;9.414;2023-02-28T02:49:21;1.40;;;1.00;;
76656;SDS011;65576;47.714;9.414;2023-02-28T02:51:49;1.73;;;1.15;;
76656;SDS011;65576;47.714;9.414;2023-02-28T02:54:35;1.10;;;0.90;;
76656;SDS011;65576;47.714;9.414;2023-02-28T02:57:08;0.40;;;0.40;;
76656;SDS011;65576;47.714;9.414;2023-02-28T02:59:37;0.85;;;0.80;;
76656;SDS011;65576;47.714;9.414;2023-02-28T03:02:04;2.13;;;1.10;;
76656;SDS011;65576;47.714;9.414;2023-02-28T03:04:33;0.73;;;0.73;;
76656;SDS011;65576;47.714;9.414;2023-02-28T03:09:28;0.50;;;0.50;;
76656;SDS011;65576;47.714;9.414;2023-02-28T03:11:54;1.05;;;1.02;;
76656;SDS011;65576;47.714;9.414;2023-02-28T03:19:45;0.35;;;0.35;;
76656;SDS011;65576;47.714;9.414;2023-02-28T03:25:39;0.77;;;0.77;;
76656;SDS011;65576;47.714;9.414;2023-02-28T03:28:15;3.47;;;1.35;;
76656;SDS011;65576;47.714;9.414;2023-02-28T03:30:47;1.88;;;1.42;;
76656;SDS011;65576;47.714;9.414;2023-02-28T03:33:36;1.05;;;1.02;;
76656;SDS011;65576;47.714;9.414;2023-02-28T03:36:06;0.57;;;0.57;;
76656;SDS011;65576;47.714;9.414;2023-02-28T03:38:46;1.10;;;0.95;;
76656;SDS011;65576;47.714;9.414;2023-02-28T03:41:19;0.73;;;0.73;;
76656;SDS011;65576;47.714;9.414;2023-02-28T03:43:54;1.30;;;0.93;;
76656;SDS011;65576;47.714;9.414;2023-02-28T03:46:23;2.42;;;2.22;;
76656;SDS011;65576;47.714;9.414;2023-02-28T03:49:23;3.40;;;2.03;;
76656;SDS011;65576;47.714;9.414;2023-02-28T03:51:43;0.65;;;0.63;;
76656;SDS011;65576;47.714;9.414;2023-02-28T03:54:12;1.85;;;1.23;;
76656;SDS011;65576;47.714;9.414;2023-02-28T03:56:40;0.60;;;0.60;;
76656;SDS011;65576;47.714;9.414;2023-02-28T03:59:18;1.17;;;1.05;;
76656;SDS011;65576;47.714;9.414;2023-02-28T04:01:47;1.45;;;1.35;;
76656;SDS011;65576;47.714;9.414;2023-02-28T04:04:13;1.35;;;1.05;;
76656;SDS011;65576;47.714;9.414;2023-02-28T04:06:39;2.92;;;1.08;;
76656;SDS011;65576;47.714;9.414;2023-02-28T04:09:05;0.68;;;0.68;;
76656;SDS011;65576;47.714;9.414;2023-02-28T04:11:33;1.35;;;1.25;;
76656;SDS011;65576;47.714;9.414;2023-02-28T04:14:04;1.80;;;1.30;;
76656;SDS011;65576;47.714;9.414;2023-02-28T04:16:30;1.30;;;1.20;;
76656;SDS011;65576;47.714;9.414;2023-02-28T04:18:56;0.43;;;0.38;;
76656;SDS011;65576;47.714;9.414;2023-02-28T04:21:27;0.70;;;0.70;;
76656;SDS011;65576;47.714;9.414;2023-02-28T04:23:53;0.70;;;0.35;;
76656;SDS011;65576;47.714;9.414;2023-02-28T04:26:18;1.65;;;1.55;;
76656;SDS011;65576;47.714;9.414;2023-02-28T04:28:44;0.75;;;0.75;;
76656;SDS011;65576;47.714;9.414;2023-02-28T04:31:09;1.73;;;1.30;;
76656;SDS011;65576;47.714;9.414;2023-02-28T04:33:34;1.40;;;1.30;;
76656;SDS011;65576;47.714;9.414;2023-02-28T04:38:33;1.80;;;1.17;;
76656;SDS011;65576;47.714;9.414;2023-02-28T04:40:59;0.80;;;0.80;;
76656;SDS011;65576;47.714;9.414;2023-02-28T04:43:25;1.08;;;0.90;;
76656;SDS011;65576;47.714;9.414;2023-02-28T04:45:51;1.67;;;0.77;;
76656;SDS011;65576;47.714;9.414;2023-02-28T04:48:16;0.75;;;0.70;;
76656;SDS011;65576;47.714;9.414;2023-02-28T04:50:42;0.52;;;0.52;;
76656;SDS011;65576;47.714;9.414;2023-02-28T04:53:07;1.23;;;1.10;;
76656;SDS011;65576;47.714;9.414;2023-02-28T04:55:33;0.98;;;0.98;;
76656;SDS011;65576;47.714;9.414;2023-02-28T04:57:58;1.48;;;1.40;;
76656;SDS011;65576;47.714;9.414;2023-02-28T05:00:23;3.50;;;1.17;;
76656;SDS011;65576;47.714;9.414;2023-02-28T05:02:49;1.60;;;1.00;;
76656;SDS011;65576;47.714;9.414;2023-02-28T05:05:14;1.83;;;1.65;;
76656;SDS011;65576;47.714;9.414;2023-02-28T05:07:43;14.35;;;1.45;;
76656;SDS011;65576;47.714;9.414;2023-02-28T05:10:09;2.03;;;1.80;;
76656;SDS011;65576;47.714;9.414;2023-02-28T05:12:35;1.75;;;1.33;;
76656;SDS011;65576;47.714;9.414;2023-02-28T05:15:00;1.25;;;1.15;;
76656;SDS011;65576;47.714;9.414;2023-02-28T05:17:27;1.33;;;1.15;;
76656;SDS011;65576;47.714;9.414;2023-02-28T05:19:52;1.08;;;1.08;;
76656;SDS011;65576;47.714;9.414;2023-02-28T05:22:17;1.00;;;1.00;;
76656;SDS011;65576;47.714;9.414;2023-02-28T05:24:42;0.98;;;0.88;;
76656;SDS011;65576;47.714;9.414;2023-02-28T05:27:08;1.50;;;1.40;;
76656;SDS011;65576;47.714;9.414;2023-02-28T05:29:33;1.27;;;1.13;;
76656;SDS011;65576;47.714;9.414;2023-02-28T05:31:59;2.55;;;1.58;;
76656;SDS011;65576;47.714;9.414;2023-02-28T05:34:24;0.70;;;0.70;;
76656;SDS011;65576;47.714;9.414;2023-02-28T05:36:49;3.55;;;1.95;;
76656;SDS011;65576;47.714;9.414;2023-02-28T05:39:15;3.38;;;0.80;;
76656;SDS011;65576;47.714;9.414;2023-02-28T05:41:41;1.65;;;1.30;;
76656;SDS011;65576;47.714;9.414;2023-02-28T05:44:06;2.17;;;1.98;;
76656;SDS011;65576;47.714;9.414;2023-02-28T05:46:32;1.35;;;1.25;;
76656;SDS011;65576;47.714;9.414;2023-02-28T05:48:57;2.10;;;1.00;;
76656;SDS011;65576;47.714;9.414;2023-02-28T05:51:25;1.27;;;1.25;;
76656;SDS011;65576;47.714;9.414;2023-02-28T05:53:50;1.70;;;1.38;;
76656;SDS011;65576;47.714;9.414;2023-02-28T05:56:15;0.98;;;0.82;;
76656;SDS011;65576;47.714;9.414;2023-02-28T05:58:41;3.03;;;2.72;;
76656;SDS011;65576;47.714;9.414;2023-02-28T06:03:50;1.63;;;1.52;;
76656;SDS011;65576;47.714;9.414;2023-02-28T06:06:16;1.23;;;0.68;;
76656;SDS011;65576;47.714;9.414;2023-02-28T06:08:41;2.00;;;1.52;;
76656;SDS011;65576;47.714;9.414;2023-02-28T06:11:08;1.50;;;1.35;;
76656;SDS011;65576;47.714;9.414;2023-02-28T06:13:33;1.77;;;1.67;;
76656;SDS011;65576;47.714;9.414;2023-02-28T06:16:02;1.10;;;1.10;;
76656;SDS011;65576;47.714;9.414;2023-02-28T06:18:27;2.65;;;1.65;;
76656;SDS011;65576;47.714;9.414;2023-02-28T06:20:53;0.95;;;0.95;;
76656;SDS011;65576;47.714;9.414;2023-02-28T06:23:19;1.95;;;1.75;;
76656;SDS011;65576;47.714;9.414;2023-02-28T06:25:45;2.28;;;1.55;;
76656;SDS011;65576;47.714;9.414;2023-02-28T06:28:11;4.30;;;1.33;;
76656;SDS011;65576;47.714;9.414;2023-02-28T06:30:37;4.25;;;2.15;;
76656;SDS011;65576;47.714;9.414;2023-02-28T06:33:02;2.40;;;1.85;;
76656;SDS011;65576;47.714;9.414;2023-02-28T06:35:28;1.58;;;1.10;;
76656;SDS011;65576;47.714;9.414;2023-02-28T06:37:54;1.35;;;1.25;;
76656;SDS011;65576;47.714;9.414;2023-02-28T06:40:19;3.90;;;1.92;;
76656;SDS011;65576;47.714;9.414;2023-02-28T06:42:45;3.13;;;1.48;;
76656;SDS011;65576;47.714;9.414;2023-02-28T06:45:10;1.77;;;1.48;;
76656;SDS011;65576;47.714;9.414;2023-02-28T06:47:37;0.80;;;0.80;;
76656;SDS011;65576;47.714;9.414;2023-02-28T06:50:03;2.20;;;1.55;;
76656;SDS011;65576;47.714;9.414;2023-02-28T06:52:29;1.85;;;1.75;;
76656;SDS011;65576;47.714;9.414;2023-02-28T06:54:55;1.60;;;1.17;;
76656;SDS011;65576;47.714;9.414;2023-02-28T06:57:25;1.73;;;1.25;;
76656;SDS011;65576;47.714;9.414;2023-02-28T06:59:52;1.98;;;1.88;;
76656;SDS011;65576;47.714;9.414;2023-02-28T07:02:17;2.10;;;2.00;;
76656;SDS011;65576;47.714;9.414;2023-02-28T07:04:42;4.32;;;1.63;;
76656;SDS011;65576;47.714;9.414;2023-02-28T07:07:09;1.42;;;1.13;;
76656;SDS011;65576;47.714;9.414;2023-02-28T07:09:34;1.35;;;1.08;;
76656;SDS011;65576;47.714;9.414;2023-02-28T07:12:00;2.28;;;2.08;;
76656;SDS011;65576;47.714;9.414;2023-02-28T07:14:25;2.05;;;1.38;;
76656;SDS011;65576;47.714;9.414;2023-02-28T07:16:51;1.40;;;1.30;;
76656;SDS011;65576;47.714;9.414;2023-02-28T07:19:16;1.88;;;1.45;;
76656;SDS011;65576;47.714;9.414;2023-02-28T07:21:41;2.67;;;1.80;;
76656;SDS011;65576;47.714;9.414;2023-02-28T07:24:07;1.35;;;1.25;;
76656;SDS011;65576;47.714;9.414;2023-02-28T07:26:32;1.27;;;1.17;;
76656;SDS011;65576;47.714;9.414;2023-02-28T07:28:59;1.55;;;1.38;;
76656;SDS011;65576;47.714;9.414;2023-02-28T07:31:24;1.42;;;1.33;;
76656;SDS011;65576;47.714;9.414;2023-02-28T07:33:50;2.05;;;1.75;;
76656;SDS011;65576;47.714;9.414;2023-02-28T07:36:16;1.80;;;1.33;;
76656;SDS011;65576;47.714;9.414;2023-02-28T07:38:43;2.22;;;2.08;;
76656;SDS011;65576;47.714;9.414;2023-02-28T07:41:11;1.33;;;1.25;;
76656;SDS011;65576;47.714;9.414;2023-02-28T07:43:36;1.90;;;1.67;;
76656;SDS011;65576;47.714;9.414;2023-02-28T07:46:06;1.13;;;1.02;;
76656;SDS011;65576;47.714;9.414;2023-02-28T07:48:34;2.17;;;1.55;;
76656;SDS011;65576;47.714;9.414;2023-02-28T07:50:59;1.50;;;1.30;;
76656;SDS011;65576;47.714;9.414;2023-02-28T07:53:25;1.92;;;1.42;;
76656;SDS011;65576;47.714;9.414;2023-02-28T07:55:54;2.15;;;1.63;;
76656;SDS011;65576;47.714;9.414;2023-02-28T07:58:23;0.93;;;0.93;;
76656;SDS011;65576;47.714;9.414;2023-02-28T08:00:49;2.08;;;1.98;;
76656;SDS011;65576;47.714;9.414;2023-02-28T08:03:14;1.38;;;1.33;;
76656;SDS011;65576;47.714;9.414;2023-02-28T08:05:40;2.90;;;2.20;;
76656;SDS011;65576;47.714;9.414;2023-02-28T08:08:06;4.18;;;1.77;;
76656;SDS011;65576;47.714;9.414;2023-02-28T08:10:32;1.75;;;1.63;;
76656;SDS011;65576;47.714;9.414;2023-02-28T08:12:57;1.63;;;1.48;;
76656;SDS011;65576;47.714;9.414;2023-02-28T08:15:22;3.03;;;1.85;;
76656;SDS011;65576;47.714;9.414;2023-02-28T08:17:48;0.75;;;0.75;;
76656;SDS011;65576;47.714;9.414;2023-02-28T08:20:13;1.95;;;1.42;;
76656;SDS011;65576;47.714;9.414;2023-02-28T08:22:38;1.88;;;1.50;;
76656;SDS011;65576;47.714;9.414;2023-02-28T08:25:04;3.10;;;2.13;;
76656;SDS011;65576;47.714;9.414;2023-02-28T08:27:29;1.17;;;1.02;;
76656;SDS011;65576;47.714;9.414;2023-02-28T08:29:54;1.77;;;1.08;;
76656;SDS011;65576;47.714;9.414;2023-02-28T08:32:20;1.92;;;1.42;;
76656;SDS011;65576;47.714;9.414;2023-02-28T08:34:45;2.70;;;1.98;;
76656;SDS011;65576;47.714;9.414;2023-02-28T08:37:10;1.10;;;1.00;;
76656;SDS011;65576;47.714;9.414;2023-02-28T08:39:36;1.73;;;1.60;;
76656;SDS011;65576;47.714;9.414;2023-02-28T08:42:02;2.55;;;1.13;;
76656;SDS011;65576;47.714;9.414;2023-02-28T08:44:28;1.58;;;1.45;;
76656;SDS011;65576;47.714;9.414;2023-02-28T08:46:53;2.10;;;1.60;;
76656;SDS011;65576;47.714;9.414;2023-02-28T08:49:18;5.88;;;3.85;;
76656;SDS011;65576;47.714;9.414;2023-02-28T08:51:44;3.83;;;2.05;;
76656;SDS011;65576;47.714;9.414;2023-02-28T08:54:09;2.00;;;1.20;;
76656;SDS011;65576;47.714;9.414;2023-02-28T08:56:37;1.67;;;1.58;;
76656;SDS011;65576;47.714;9.414;2023-02-28T08:59:03;1.83;;;1.73;;
76656;SDS011;65576;47.714;9.414;2023-02-28T09:01:28;2.13;;;1.75;;
76656;SDS011;65576;47.714;9.414;2023-02-28T09:03:54;2.25;;;1.48;;
76656;SDS011;65576;47.714;9.414;2023-02-28T09:06:20;1.55;;;1.45;;
76656;SDS011;65576;47.714;9.414;2023-02-28T09:08:46;2.53;;;2.05;;
76656;SDS011;65576;47.714;9.414;2023-02-28T09:11:12;1.73;;;1.25;;
76656;SDS011;65576;47.714;9.414;2023-02-28T09:13:38;2.33;;;1.73;;
76656;SDS011;65576;47.714;9.414;2023-02-28T09:16:04;1.20;;;1.10;;
76656;SDS011;65576;47.714;9.414;2023-02-28T09:18:31;1.55;;;1.45;;
76656;SDS011;65576;47.714;9.414;2023-02-28T09:20:56;1.63;;;1.27;;
76656;SDS011;65576;47.714;9.414;2023-02-28T09:23:22;1.45;;;1.23;;
76656;SDS011;65576;47.714;9.414;2023-02-28T09:25:49;5.25;;;2.10;;
76656;SDS011;65576;47.714;9.414;2023-02-28T09:28:19;2.53;;;1.10;;
76656;SDS011;65576;47.714;9.414;2023-02-28T09:30:45;2.83;;;2.35;;
76656;SDS011;65576;47.714;9.414;2023-02-28T09:33:12;2.42;;;2.20;;
76656;SDS011;65576;47.714;9.414;2023-02-28T09:35:38;2.15;;;1.95;;
76656;SDS011;65576;47.714;9.414;2023-02-28T09:38:03;2.95;;;1.88;;
76656;SDS011;65576;47.714;9.414;2023-02-28T09:40:30;1.42;;;0.93;;
76656;SDS011;65576;47.714;9.414;2023-02-28T09:42:56;4.20;;;2.42;;
76656;SDS011;65576;47.714;9.414;2023-02-28T09:45:24;5.90;;;2.10;;
76656;SDS011;65576;47.714;9.414;2023-02-28T09:47:54;1.65;;;1.25;;
76656;SDS011;65576;47.714;9.414;2023-02-28T09:50:35;1.63;;;1.52;;
76656;SDS011;65576;47.714;9.414;2023-02-28T09:53:06;1.77;;;1.48;;
76656;SDS011;65576;47.714;9.414;2023-02-28T09:55:39;1.70;;;1.60;;
76656;SDS011;65576;47.714;9.414;2023-02-28T10:01:00;1.73;;;1.52;;
76656;SDS011;65576;47.714;9.414;2023-02-28T10:03:30;1.98;;;1.83;;
76656;SDS011;65576;47.714;9.414;2023-02-28T10:06:18;1.00;;;0.88;;
76656;SDS011;65576;47.714;9.414;2023-02-28T10:08:47;0.93;;;0.93;;
76656;SDS011;65576;47.714;9.414;2023-02-28T10:11:38;1.52;;;1.42;;
76656;SDS011;65576;47.714;9.414;2023-02-28T10:14:21;2.40;;;2.05;;
76656;SDS011;65576;47.714;9.414;2023-02-28T10:16:50;2.58;;;2.38;;
76656;SDS011;65576;47.714;9.414;2023-02-28T10:21:57;1.27;;;1.08;;
76656;SDS011;65576;47.714;9.414;2023-02-28T10:24:35;4.07;;;2.38;;
76656;SDS011;65576;47.714;9.414;2023-02-28T10:29:51;1.20;;;1.05;;
76656;SDS011;65576;47.714;9.414;2023-02-28T10:32:19;2.90;;;1.65;;
76656;SDS011;65576;47.714;9.414;2023-02-28T10:34:53;1.55;;;1.45;;
76656;SDS011;65576;47.714;9.414;2023-02-28T10:37:22;15.70;;;1.80;;
76656;SDS011;65576;47.714;9.414;2023-02-28T10:39:47;1.33;;;1.25;;
76656;SDS011;65576;47.714;9.414;2023-02-28T10:44:44;1.85;;;1.75;;
76656;SDS011;65576;47.714;9.414;2023-02-28T10:47:16;0.85;;;0.85;;
76656;SDS011;65576;47.714;9.414;2023-02-28T10:49:49;2.38;;;1.65;;
76656;SDS011;65576;47.714;9.414;2023-02-28T10:52:32;2.45;;;1.67;;
76656;SDS011;65576;47.714;9.414;2023-02-28T10:55:32;1.95;;;1.85;;
76656;SDS011;65576;47.714;9.414;2023-02-28T11:00:23;1.25;;;1.15;;
76656;SDS011;65576;47.714;9.414;2023-02-28T11:02:52;2.35;;;1.92;;
76656;SDS011;65576;47.714;9.414;2023-02-28T11:05:25;4.10;;;1.75;;
76656;SDS011;65576;47.714;9.414;2023-02-28T11:08:12;3.15;;;2.08;;
76656;SDS011;65576;47.714;9.414;2023-02-28T11:10:43;2.50;;;2.30;;
76656;SDS011;65576;47.714;9.414;2023-02-28T11:13:16;3.95;;;2.78;;
76656;SDS011;65576;47.714;9.414;2023-02-28T11:15:46;3.67;;;3.10;;
76656;SDS011;65576;47.714;9.414;2023-02-28T11:18:20;1.75;;;1.65;;
76656;SDS011;65576;47.714;9.414;2023-02-28T11:20:48;1.88;;;1.77;;
76656;SDS011;65576;47.714;9.414;2023-02-28T11:23:15;3.15;;;2.20;;
76656;SDS011;65576;47.714;9.414;2023-02-28T11:25:45;3.80;;;1.83;;
76656;SDS011;65576;47.714;9.414;2023-02-28T11:28:27;2.72;;;2.10;;
76656;SDS011;65576;47.714;9.414;2023-02-28T11:30:59;2.60;;;1.95;;
76656;SDS011;65576;47.714;9.414;2023-02-28T11:33:29;2.63;;;2.42;;
76656;SDS011;65576;47.714;9.414;2023-02-28T11:36:19;3.88;;;2.28;;
76656;SDS011;65576;47.714;9.414;2023-02-28T11:38:50;4.70;;;2.50;;
76656;SDS011;65576;47.714;9.414;2023-02-28T11:46:55;1.48;;;1.20;;
76656;SDS011;65576;47.714;9.414;2023-02-28T11:52:19;1.70;;;1.60;;
76656;SDS011;65576;47.714;9.414;2023-02-28T11:54:59;3.92;;;2.75;;
76656;SDS011;65576;47.714;9.414;2023-02-28T11:58:01;3.17;;;2.47;;
76656;SDS011;65576;47.714;9.414;2023-02-28T12:27:02;4.20;;;1.77;;
76656;SDS011;65576;47.714;9.414;2023-02-28T12:30:08;3.78;;;2.45;;
76656;SDS011;65576;47.714;9.414;2023-02-28T12:34:57;3.25;;;2.25;;
76656;SDS011;65576;47.714;9.414;2023-02-28T12:37:29;2.85;;;2.05;;
76656;SDS011;65576;47.714;9.414;2023-02-28T12:40:02;4.60;;;3.05;;
76656;SDS011;65576;47.714;9.414;2023-02-28T12:42:33;3.55;;;3.00;;
76656;SDS011;65576;47.714;9.414;2023-02-28T12:45:08;3.13;;;2.70;;
76656;SDS011;65576;47.714;9.414;2023-02-28T12:47:37;2.75;;;2.30;;
76656;SDS011;65576;47.714;9.414;2023-02-28T12:52:39;2.30;;;2.10;;
76656;SDS011;65576;47.714;9.414;2023-02-28T13:03:31;4.97;;;3.28;;
76656;SDS011;65576;47.714;9.414;2023-02-28T13:11:28;2.88;;;2.45;;
76656;SDS011;65576;47.714;9.414;2023-02-28T13:13:59;2.80;;;2.05;;
76656;SDS011;65576;47.714;9.414;2023-02-28T13:16:25;1.53;;;1.43;;
76656;SDS011;65576;47.714;9.414;2023-02-28T13:18:51;5.25;;;2.95;;
76656;SDS011;65576;47.714;9.414;2023-02-28T13:21:24;4.30;;;2.45;;
76656;SDS011;65576;47.714;9.414;2023-02-28T13:26:22;5.03;;;2.63;;
76656;SDS011;65576;47.714;9.414;2023-02-28T13:31:13;4.10;;;2.17;;
76656;SDS011;65576;47.714;9.414;2023-02-28T13:38:43;7.40;;;3.03;;
76656;SDS011;65576;47.714;9.414;2023-02-28T13:46:26;2.75;;;2.45;;
76656;SDS011;65576;47.714;9.414;2023-02-28T13:48:52;3.40;;;2.70;;
76656;SDS011;65576;47.714;9.414;2023-02-28T13:51:38;1.63;;;1.52;;
76656;SDS011;65576;47.714;9.414;2023-02-28T13:54:16;5.22;;;3.38;;
76656;SDS011;65576;47.714;9.414;2023-02-28T13:57:18;2.42;;;2.28;;
76656;SDS011;65576;47.714;9.414;2023-02-28T14:02:43;2.65;;;2.22;;
76656;SDS011;65576;47.714;9.414;2023-02-28T14:05:33;3.20;;;2.40;;
76656;SDS011;65576;47.714;9.414;2023-02-28T14:08:03;2.90;;;2.42;;
76656;SDS011;65576;47.714;9.414;2023-02-28T14:10:31;1.75;;;1.65;;
76656;SDS011;65576;47.714;9.414;2023-02-28T14:13:14;3.53;;;2.78;;
76656;SDS011;65576;47.714;9.414;2023-02-28T14:16:13;3.50;;;2.65;;
76656;SDS011;65576;47.714;9.414;2023-02-28T14:18:42;4.80;;;3.22;;
76656;SDS011;65576;47.714;9.414;2023-02-28T14:21:16;4.88;;;4.35;;
76656;SDS011;65576;47.714;9.414;2023-02-28T14:24:07;5.45;;;3.63;;
76656;SDS011;65576;47.714;9.414;2023-02-28T14:29:30;3.42;;;2.60;;
76656;SDS011;65576;47.714;9.414;2023-02-28T14:34:58;4.50;;;2.50;;
76656;SDS011;65576;47.714;9.414;2023-02-28T14:37:32;2.53;;;2.33;;
76656;SDS011;65576;47.714;9.414;2023-02-28T14:39:59;4.53;;;3.55;;
76656;SDS011;65576;47.714;9.414;2023-02-28T14:42:32;3.35;;;3.05;;
76656;SDS011;65576;47.714;9.414;2023-02-28T14:44:59;5.45;;;2.45;;
76656;SDS011;65576;47.714;9.414;2023-02-28T14:47:27;2.10;;;2.00;;
76656;SDS011;65576;47.714;9.414;2023-02-28T14:49:57;3.75;;;3.42;;
76656;SDS011;65576;47.714;9.414;2023-02-28T14:52:27;12.23;;;4.28;;
76656;SDS011;65576;47.714;9.414;2023-02-28T14:54:55;4.88;;;3.30;;
76656;SDS011;65576;47.714;9.414;2023-02-28T14:57:27;1.77;;;1.60;;
76656;SDS011;65576;47.714;9.414;2023-02-28T15:00:47;4.20;;;3.58;;
76656;SDS011;65576;47.714;9.414;2023-02-28T15:02:46;3.45;;;3.00;;
76656;SDS011;65576;47.714;9.414;2023-02-28T15:10:23;3.35;;;2.40;;
76656;SDS011;65576;47.714;9.414;2023-02-28T15:12:53;4.32;;;1.90;;
76656;SDS011;65576;47.714;9.414;2023-02-28T15:15:21;3.15;;;2.85;;
76656;SDS011;65576;47.714;9.414;2023-02-28T15:17:49;2.58;;;2.38;;
76656;SDS011;65576;47.714;9.414;2023-02-28T15:20:15;2.58;;;2.38;;
76656;SDS011;65576;47.714;9.414;2023-02-28T15:22:41;3.90;;;2.20;;
76656;SDS011;65576;47.714;9.414;2023-02-28T15:25:09;4.13;;;3.00;;
76656;SDS011;65576;47.714;9.414;2023-02-28T15:27:37;2.80;;;2.15;;
76656;SDS011;65576;47.714;9.414;2023-02-28T15:30:13;2.58;;;2.35;;
76656;SDS011;65576;47.714;9.414;2023-02-28T15:32:41;5.07;;;3.50;;
76656;SDS011;65576;47.714;9.414;2023-02-28T15:35:18;4.75;;;3.10;;
76656;SDS011;65576;47.714;9.414;2023-02-28T15:38:03;3.42;;;3.15;;
76656;SDS011;65576;47.714;9.414;2023-02-28T15:40:41;4.03;;;2.88;;
76656;SDS011;65576;47.714;9.414;2023-02-28T15:43:15;3.53;;;2.65;;
76656;SDS011;65576;47.714;9.414;2023-02-28T15:46:11;2.88;;;2.60;;
76656;SDS011;65576;47.714;9.414;2023-02-28T15:53:38;4.50;;;3.42;;
76656;SDS011;65576;47.714;9.414;2023-02-28T15:58:48;4.90;;;2.70;;
76656;SDS011;65576;47.714;9.414;2023-02-28T16:04:18;3.33;;;2.40;;
76656;SDS011;65576;47.714;9.414;2023-02-28T16:06:45;3.58;;;2.95;;
76656;SDS011;65576;47.714;9.414;2023-02-28T16:09:12;6.50;;;3.58;;
76656;SDS011;65576;47.714;9.414;2023-02-28T16:11:43;3.85;;;3.35;;
76656;SDS011;65576;47.714;9.414;2023-02-28T16:14:12;7.88;;;3.83;;
76656;SDS011;65576;47.714;9.414;2023-02-28T16:16:44;8.98;;;5.07;;
76656;SDS011;65576;47.714;9.414;2023-02-28T16:19:11;8.65;;;4.55;;
76656;SDS011;65576;47.714;9.414;2023-02-28T16:21:36;8.25;;;4.25;;
76656;SDS011;65576;47.714;9.414;2023-02-28T16:24:01;8.80;;;5.40;;
76656;SDS011;65576;47.714;9.414;2023-02-28T16:26:26;13.98;;;7.47;;
76656;SDS011;65576;47.714;9.414;2023-02-28T16:28:53;18.30;;;10.18;;
76656;SDS011;65576;47.714;9.414;2023-02-28T16:31:19;16.77;;;9.63;;
76656;SDS011;65576;47.714;9.414;2023-02-28T16:33:44;15.15;;;9.10;;
76656;SDS011;65576;47.714;9.414;2023-02-28T16:36:13;10.85;;;6.10;;
76656;SDS011;65576;47.714;9.414;2023-02-28T16:38:42;10.75;;;6.78;;
76656;SDS011;65576;47.714;9.414;2023-02-28T16:41:07;9.38;;;7.40;;
76656;SDS011;65576;47.714;9.414;2023-02-28T16:43:43;7.60;;;5.45;;
76656;SDS011;65576;47.714;9.414;2023-02-28T16:46:12;14.57;;;8.18;;
76656;SDS011;65576;47.714;9.414;2023-02-28T16:48:38;20.48;;;9.20;;
76656;SDS011;65576;47.714;9.414;2023-02-28T16:51:05;11.68;;;6.45;;
76656;SDS011;65576;47.714;9.414;2023-02-28T16:53:30;13.48;;;8.30;;
76656;SDS011;65576;47.714;9.414;2023-02-28T16:55:56;13.05;;;8.70;;
76656;SDS011;65576;47.714;9.414;2023-02-28T16:58:22;11.57;;;6.60;;
76656;SDS011;65576;47.714;9.414;2023-02-28T17:00:50;19.42;;;8.15;;
76656;SDS011;65576;47.714;9.414;2023-02-28T17:03:24;7.95;;;5.13;;
76656;SDS011;65576;47.714;9.414;2023-02-28T17:05:50;6.70;;;4.88;;
76656;SDS011;65576;47.714;9.414;2023-02-28T17:08:16;7.22;;;5.95;;
76656;SDS011;65576;47.714;9.414;2023-02-28T17:10:41;10.20;;;3.78;;
76656;SDS011;65576;47.714;9.414;2023-02-28T17:13:07;7.13;;;4.35;;
76656;SDS011;65576;47.714;9.414;2023-02-28T17:15:33;3.72;;;3.17;;